createdAt,value
2019-05-21T00:00:39.051Z,12.00
2019-05-21T00:03:05.310Z,12.00
2019-05-21T00:05:31.450Z,11.90
2019-05-21T00:07:57.542Z,11.90
2019-05-21T00:10:24.699Z,11.90
2019-05-21T00:12:50.869Z,11.90
2019-05-21T00:15:17.079Z,11.90
2019-05-21T00:17:43.152Z,11.90
2019-05-21T00:20:09.789Z,11.90
2019-05-21T00:22:36.021Z,11.80
2019-05-21T00:25:04.009Z,11.80
2019-05-21T00:27:30.197Z,11.80
2019-05-21T00:30:33.967Z,11.80
2019-05-21T00:33:37.619Z,11.80
2019-05-21T00:36:43.247Z,11.80
2019-05-21T00:39:46.811Z,11.80
2019-05-21T00:42:19.254Z,11.80
2019-05-21T00:44:45.872Z,11.70
2019-05-21T00:47:12.038Z,11.70
2019-05-21T00:49:38.281Z,11.70
2019-05-21T00:52:08.381Z,11.70
2019-05-21T00:54:32.974Z,11.70
2019-05-21T00:56:59.264Z,11.70
2019-05-21T00:59:25.421Z,11.70
2019-05-21T01:01:51.757Z,11.70
2019-05-21T01:04:17.874Z,11.60
2019-05-21T01:06:44.116Z,11.70
2019-05-21T01:09:10.321Z,11.60
2019-05-21T01:11:36.421Z,11.60
2019-05-21T01:14:02.714Z,11.60
2019-05-21T01:16:29.046Z,11.60
2019-05-21T01:18:55.153Z,11.60
2019-05-21T01:21:21.230Z,11.60
2019-05-21T01:23:47.314Z,11.60
2019-05-21T01:26:13.416Z,11.50
2019-05-21T01:28:39.589Z,11.50
2019-05-21T01:31:05.723Z,11.50
2019-05-21T01:33:31.888Z,11.50
2019-05-21T01:35:57.967Z,11.50
2019-05-21T01:38:24.224Z,11.50
2019-05-21T01:40:50.363Z,11.50
2019-05-21T01:43:16.687Z,11.50
2019-05-21T01:45:42.779Z,11.50
2019-05-21T01:48:08.891Z,11.50
2019-05-21T01:50:34.966Z,11.50
2019-05-21T01:53:01.480Z,11.50
2019-05-21T01:55:28.436Z,11.40
2019-05-21T01:57:54.594Z,11.40
2019-05-21T02:00:21.098Z,11.40
2019-05-21T02:02:49.074Z,11.40
2019-05-21T02:05:15.261Z,11.40
2019-05-21T02:07:41.346Z,11.40
2019-05-21T02:10:07.943Z,11.40
2019-05-21T02:12:34.107Z,11.40
2019-05-21T02:15:00.166Z,11.30
2019-05-21T02:17:26.318Z,11.30
2019-05-21T02:19:52.478Z,11.30
2019-05-21T02:22:18.673Z,11.30
2019-05-21T02:24:44.873Z,11.30
2019-05-21T02:27:10.962Z,11.30
2019-05-21T02:29:37.061Z,11.30
2019-05-21T02:32:03.151Z,11.20
2019-05-21T02:34:29.860Z,11.20
2019-05-21T02:36:56.044Z,11.20
2019-05-21T02:39:22.903Z,11.20
2019-05-21T02:41:49.003Z,11.20
2019-05-21T02:44:15.076Z,11.20
2019-05-21T02:46:41.271Z,11.20
2019-05-21T02:49:07.337Z,11.20
2019-05-21T02:51:33.424Z,11.20
2019-05-21T02:53:59.496Z,11.20
2019-05-21T02:56:25.565Z,11.20
2019-05-21T02:58:51.775Z,11.20
2019-05-21T03:01:28.420Z,11.20
2019-05-21T03:03:54.487Z,11.20
2019-05-21T03:06:20.653Z,11.20
2019-05-21T03:08:46.821Z,11.20
2019-05-21T03:11:12.961Z,11.20
2019-05-21T03:13:39.230Z,11.10
2019-05-21T03:16:05.457Z,11.10
2019-05-21T03:18:31.615Z,11.10
2019-05-21T03:20:57.703Z,11.10
2019-05-21T03:23:24.079Z,11.20
2019-05-21T03:25:50.269Z,11.10
2019-05-21T03:28:16.361Z,11.20
2019-05-21T03:30:42.481Z,11.10
2019-05-21T03:33:08.687Z,11.10
2019-05-21T03:35:34.797Z,11.10
2019-05-21T03:38:00.878Z,11.10
2019-05-21T03:40:26.962Z,11.10
2019-05-21T03:42:53.136Z,11.10
2019-05-21T03:45:19.362Z,11.10
2019-05-21T03:47:45.485Z,11.10
2019-05-21T03:50:11.768Z,11.10
2019-05-21T03:52:38.050Z,11.10
2019-05-21T03:55:04.435Z,11.10
2019-05-21T03:57:30.557Z,11.10
2019-05-21T03:59:56.828Z,11.00
2019-05-21T04:02:22.994Z,11.00
2019-05-21T04:04:49.113Z,11.00
2019-05-21T04:07:15.262Z,11.00
2019-05-21T04:09:41.461Z,11.00
2019-05-21T04:12:07.723Z,11.00
2019-05-21T04:14:41.532Z,11.00
2019-05-21T04:17:21.239Z,11.00
2019-05-21T04:19:48.324Z,11.00
2019-05-21T04:22:15.330Z,11.00
2019-05-21T04:24:45.414Z,11.00
2019-05-21T04:27:12.394Z,11.00
2019-05-21T04:29:38.544Z,11.00
2019-05-21T04:32:04.622Z,11.00
2019-05-21T04:34:30.808Z,11.00
2019-05-21T04:37:09.730Z,11.00
2019-05-21T04:39:24.977Z,11.00
2019-05-21T04:41:51.141Z,11.00
2019-05-21T04:44:17.201Z,10.90
2019-05-21T04:46:43.275Z,10.90
2019-05-21T04:49:09.339Z,10.90
2019-05-21T04:51:35.415Z,10.90
2019-05-21T04:54:01.704Z,10.90
2019-05-21T04:56:27.841Z,10.90
2019-05-21T04:58:53.899Z,10.90
2019-05-21T05:01:20.013Z,10.90
2019-05-21T05:03:46.054Z,10.90
2019-05-21T05:06:12.200Z,10.90
2019-05-21T05:08:38.278Z,10.90
2019-05-21T05:11:04.345Z,10.90
2019-05-21T05:13:30.412Z,10.90
2019-05-21T05:15:56.516Z,10.90
2019-05-21T05:18:22.580Z,10.90
2019-05-21T05:20:48.677Z,10.90
2019-05-21T05:23:14.778Z,10.90
2019-05-21T05:25:40.856Z,10.90
2019-05-21T05:28:07.008Z,10.90
2019-05-21T05:30:33.163Z,10.90
2019-05-21T05:32:59.262Z,10.90
2019-05-21T05:35:25.433Z,10.90
2019-05-21T05:37:51.527Z,10.90
2019-05-21T05:40:17.985Z,10.90
2019-05-21T05:42:44.244Z,10.90
2019-05-21T05:45:10.660Z,10.90
2019-05-21T05:47:36.753Z,10.90
2019-05-21T05:50:08.454Z,10.90
2019-05-21T05:52:34.521Z,10.90
2019-05-21T05:55:00.624Z,10.90
2019-05-21T05:57:26.782Z,10.90
2019-05-21T05:59:52.854Z,10.90
2019-05-21T06:02:18.918Z,10.90
2019-05-21T06:04:45.018Z,10.90
2019-05-21T06:07:11.142Z,10.90
2019-05-21T06:09:37.215Z,10.90
2019-05-21T06:12:03.565Z,10.90
2019-05-21T06:14:30.789Z,10.90
2019-05-21T06:16:56.898Z,10.80
2019-05-21T06:19:23.003Z,10.90
2019-05-21T06:21:49.626Z,10.80
2019-05-21T06:24:15.750Z,10.90
2019-05-21T06:26:41.921Z,10.90
2019-05-21T06:29:07.977Z,10.90
2019-05-21T06:31:34.157Z,10.90
2019-05-21T06:34:00.293Z,10.90
2019-05-21T06:36:26.354Z,10.80
2019-05-21T06:38:52.411Z,10.80
2019-05-21T06:41:18.574Z,10.80
2019-05-21T06:43:44.737Z,10.80
2019-05-21T06:46:10.965Z,10.80
2019-05-21T06:48:37.098Z,10.80
2019-05-21T06:51:03.171Z,10.80
2019-05-21T06:53:29.303Z,10.80
2019-05-21T06:55:55.366Z,10.80
2019-05-21T06:58:21.485Z,10.80
2019-05-21T07:00:47.738Z,10.80
2019-05-21T07:03:13.875Z,10.80
2019-05-21T07:05:57.266Z,10.80
2019-05-21T07:08:08.027Z,10.80
2019-05-21T07:10:34.100Z,10.80
2019-05-21T07:13:00.269Z,10.80
2019-05-21T07:15:26.359Z,10.80
2019-05-21T07:17:52.432Z,10.80
2019-05-21T07:20:19.095Z,10.80
2019-05-21T07:22:45.283Z,10.80
2019-05-21T07:25:11.642Z,10.80
2019-05-21T07:27:37.757Z,10.80
2019-05-21T07:30:06.452Z,10.80
2019-05-21T07:32:32.625Z,10.80
2019-05-21T07:34:58.736Z,10.80
2019-05-21T07:37:24.837Z,10.80
2019-05-21T07:39:50.910Z,10.80
2019-05-21T07:42:17.029Z,10.80
2019-05-21T07:44:43.195Z,10.80
2019-05-21T07:47:09.283Z,10.80
2019-05-21T07:49:35.413Z,10.70
2019-05-21T07:52:01.519Z,10.80
2019-05-21T07:54:28.189Z,10.70
2019-05-21T07:56:54.402Z,10.70
2019-05-21T07:59:20.470Z,10.80
2019-05-21T08:01:46.533Z,10.70
2019-05-21T08:04:12.701Z,10.80
2019-05-21T08:06:38.790Z,10.70
2019-05-21T08:09:13.448Z,10.70
2019-05-21T08:11:32.974Z,10.80
2019-05-21T08:13:59.039Z,10.80
2019-05-21T08:16:25.249Z,10.80
2019-05-21T08:18:51.300Z,10.80
2019-05-21T08:21:17.492Z,10.80
2019-05-21T08:23:43.620Z,10.80
2019-05-21T08:26:09.665Z,10.70
2019-05-21T08:28:35.734Z,10.80
2019-05-21T08:31:02.471Z,10.70
2019-05-21T08:33:28.837Z,10.80
2019-05-21T08:35:54.891Z,10.80
2019-05-21T08:38:21.138Z,10.80
2019-05-21T08:40:47.362Z,10.80
2019-05-21T08:43:13.621Z,10.80
2019-05-21T08:45:39.845Z,10.80
2019-05-21T08:48:06.159Z,10.80
2019-05-21T08:50:32.327Z,10.90
2019-05-21T08:52:58.724Z,10.90
2019-05-21T08:55:24.811Z,10.90
2019-05-21T08:58:05.686Z,10.90
2019-05-21T09:00:20.543Z,10.90
2019-05-21T09:02:46.736Z,10.90
2019-05-21T09:05:12.983Z,10.90
2019-05-21T09:07:39.153Z,10.90
2019-05-21T09:10:06.315Z,10.90
2019-05-21T09:12:32.507Z,10.90
2019-05-21T09:14:59.318Z,10.90
2019-05-21T09:17:25.402Z,10.90
2019-05-21T09:19:51.449Z,10.90
2019-05-21T09:22:17.610Z,10.90
2019-05-21T09:24:43.807Z,11.00
2019-05-21T09:27:09.944Z,10.90
2019-05-21T09:29:36.026Z,11.00
2019-05-21T09:32:02.494Z,11.00
2019-05-21T09:34:28.623Z,11.00
2019-05-21T09:36:54.850Z,11.00
2019-05-21T09:39:20.954Z,11.10
2019-05-21T09:41:47.144Z,11.10
2019-05-21T09:44:13.327Z,11.10
2019-05-21T09:46:39.511Z,11.10
2019-05-21T09:49:05.653Z,11.10
2019-05-21T09:51:31.827Z,11.10
2019-05-21T09:53:57.893Z,11.20
2019-05-21T09:56:36.572Z,11.20
2019-05-21T09:59:07.116Z,11.20
2019-05-21T10:01:35.252Z,11.20
2019-05-21T10:04:01.487Z,11.20
2019-05-21T10:06:27.679Z,11.30
2019-05-21T10:08:53.735Z,11.20
2019-05-21T10:11:19.779Z,11.20
2019-05-21T10:13:45.934Z,11.20
2019-05-21T10:16:12.148Z,11.30
2019-05-21T10:18:38.229Z,11.20
2019-05-21T10:21:04.500Z,11.30
2019-05-21T10:23:30.638Z,11.30
2019-05-21T10:25:56.815Z,11.30
2019-05-21T10:28:22.874Z,11.30
2019-05-21T10:30:48.986Z,11.30
2019-05-21T10:33:15.044Z,11.30
2019-05-21T10:35:41.106Z,11.30
2019-05-21T10:38:07.412Z,11.30
2019-05-21T10:40:33.542Z,11.40
2019-05-21T10:42:59.669Z,11.40
2019-05-21T10:45:25.745Z,11.40
2019-05-21T10:47:51.873Z,11.40
2019-05-21T10:50:18.221Z,11.40
2019-05-21T10:52:44.360Z,11.40
2019-05-21T10:55:15.852Z,11.40
2019-05-21T10:57:40.587Z,11.40
2019-05-21T11:00:10.380Z,11.40
2019-05-21T11:02:38.434Z,11.40
2019-05-21T11:05:16.361Z,11.40
2019-05-21T11:07:42.653Z,11.40
2019-05-21T11:10:10.829Z,11.50
2019-05-21T11:12:37.176Z,11.40
2019-05-21T11:15:05.917Z,11.50
2019-05-21T11:17:46.893Z,11.50
2019-05-21T11:20:00.478Z,11.50
2019-05-21T11:22:26.723Z,11.50
2019-05-21T11:24:52.783Z,11.50
2019-05-21T11:27:19.077Z,11.50
2019-05-21T11:29:45.418Z,11.50
2019-05-21T11:32:11.673Z,11.50
2019-05-21T11:34:37.788Z,11.50
2019-05-21T11:37:04.093Z,11.50
2019-05-21T11:39:30.320Z,11.50
2019-05-21T11:41:56.416Z,11.50
2019-05-21T11:44:22.587Z,11.50
2019-05-21T11:46:48.777Z,11.50
2019-05-21T11:49:14.832Z,11.50
2019-05-21T11:51:40.933Z,11.60
2019-05-21T11:54:07.004Z,11.60
2019-05-21T11:56:36.054Z,11.60
2019-05-21T11:59:01.183Z,11.60
2019-05-21T12:01:27.238Z,11.60
2019-05-21T12:03:53.321Z,11.60
2019-05-21T12:06:19.484Z,11.60
2019-05-21T12:08:56.081Z,11.60
2019-05-21T12:11:13.511Z,11.60
2019-05-21T12:13:39.600Z,11.60
2019-05-21T12:16:05.804Z,11.60
2019-05-21T12:18:31.939Z,11.60
2019-05-21T12:20:58.016Z,11.60
2019-05-21T12:23:25.409Z,11.70
2019-05-21T12:25:51.552Z,11.70
2019-05-21T12:28:17.626Z,11.60
2019-05-21T12:30:43.809Z,11.70
2019-05-21T12:33:09.895Z,11.70
2019-05-21T12:35:36.070Z,11.70
2019-05-21T12:38:02.237Z,11.70
2019-05-21T12:40:28.317Z,11.70
2019-05-21T12:42:54.488Z,11.70
2019-05-21T12:45:20.747Z,11.80
2019-05-21T12:47:50.349Z,11.80
2019-05-21T12:50:15.377Z,11.80
2019-05-21T12:52:41.493Z,11.80
2019-05-21T12:55:08.038Z,11.80
2019-05-21T12:57:34.126Z,11.80
2019-05-21T13:00:00.395Z,11.80
2019-05-21T13:02:26.578Z,11.80
2019-05-21T13:04:52.713Z,11.80
2019-05-21T13:07:18.793Z,11.80
2019-05-21T13:09:44.856Z,11.90
2019-05-21T13:12:11.011Z,11.90
2019-05-21T13:14:43.755Z,11.90
2019-05-21T13:17:09.851Z,12.00
2019-05-21T13:19:36.011Z,12.00
2019-05-21T13:22:02.196Z,12.10
2019-05-21T13:24:28.482Z,12.00
2019-05-21T13:26:56.447Z,12.10
2019-05-21T13:29:22.559Z,12.00
2019-05-21T13:31:49.135Z,12.10
2019-05-21T13:34:15.239Z,12.10
2019-05-21T13:36:41.481Z,12.10
2019-05-21T13:39:08.136Z,12.10
2019-05-21T13:41:34.335Z,12.00
2019-05-21T13:44:00.507Z,12.00
2019-05-21T13:46:26.665Z,12.00
2019-05-21T13:48:52.715Z,12.00
2019-05-21T13:51:18.773Z,12.00
2019-05-21T13:53:45.064Z,12.00
2019-05-21T13:56:11.152Z,12.00
2019-05-21T13:58:37.250Z,12.00
2019-05-21T14:01:05.069Z,12.00
2019-05-21T14:03:31.123Z,12.00
2019-05-21T14:05:57.202Z,11.90
2019-05-21T14:08:23.325Z,11.90
2019-05-21T14:10:49.750Z,11.90
2019-05-21T14:13:15.844Z,11.90
2019-05-21T14:15:41.968Z,11.90
2019-05-21T14:18:08.267Z,11.90
2019-05-21T14:20:34.451Z,11.90
2019-05-21T14:23:00.601Z,11.90
2019-05-21T14:25:26.927Z,11.90
2019-05-21T14:27:53.080Z,11.90
2019-05-21T14:30:20.038Z,11.90
2019-05-21T14:32:46.185Z,11.80
2019-05-21T14:35:12.464Z,11.80
2019-05-21T14:37:38.784Z,11.80
2019-05-21T14:40:06.657Z,11.80
2019-05-21T14:42:32.747Z,11.80
2019-05-21T14:44:59.597Z,11.80
2019-05-21T14:47:25.770Z,11.80
2019-05-21T14:49:51.934Z,11.80
2019-05-21T14:52:18.295Z,11.80
2019-05-21T14:54:44.352Z,11.80
2019-05-21T14:57:16.532Z,11.80
2019-05-21T14:59:42.829Z,11.80
2019-05-21T15:02:09.089Z,11.80
2019-05-21T15:04:35.462Z,11.90
2019-05-21T15:07:01.925Z,11.90
2019-05-21T15:09:28.013Z,11.80
2019-05-21T15:11:54.162Z,11.80
2019-05-21T15:14:20.266Z,11.80
2019-05-21T15:16:46.725Z,11.80
2019-05-21T15:19:12.915Z,11.80
2019-05-21T15:21:40.917Z,11.80
2019-05-21T15:24:07.129Z,11.80
2019-05-21T15:26:33.465Z,11.80
2019-05-21T15:28:59.522Z,11.80
2019-05-21T15:31:26.080Z,11.80
2019-05-21T15:33:52.378Z,11.80
2019-05-21T15:36:18.436Z,11.80
2019-05-21T15:38:50.055Z,11.80
2019-05-21T15:41:12.988Z,11.80
2019-05-21T15:43:39.196Z,11.70
2019-05-21T15:46:05.549Z,11.70
2019-05-21T15:48:31.649Z,11.70
2019-05-21T15:50:57.717Z,11.80
2019-05-21T15:53:23.917Z,11.70
2019-05-21T15:55:49.972Z,11.70
2019-05-21T15:58:16.470Z,11.70
2019-05-21T16:00:42.659Z,11.70
2019-05-21T16:03:09.149Z,11.70
2019-05-21T16:05:35.310Z,11.70
2019-05-21T16:08:01.403Z,11.70
2019-05-21T16:10:27.495Z,11.80
2019-05-21T16:12:54.457Z,11.80
2019-05-21T16:15:21.037Z,11.70
2019-05-21T16:17:47.207Z,11.70
2019-05-21T16:20:13.787Z,11.70
2019-05-21T16:22:40.040Z,11.70
2019-05-21T16:25:06.758Z,11.70
2019-05-21T16:27:33.075Z,11.70
2019-05-21T16:29:59.383Z,11.70
2019-05-21T16:32:25.714Z,11.70
2019-05-21T16:34:51.865Z,11.60
2019-05-21T16:37:18.294Z,11.60
2019-05-21T16:39:44.488Z,11.70
2019-05-21T16:42:10.600Z,11.70
2019-05-21T16:44:38.736Z,11.70
2019-05-21T16:47:04.942Z,11.60
2019-05-21T16:49:31.077Z,11.60
2019-05-21T16:51:57.222Z,11.60
2019-05-21T16:54:23.390Z,11.60
2019-05-21T16:56:49.762Z,11.60
2019-05-21T16:59:15.820Z,11.60
2019-05-21T17:01:42.017Z,11.60
2019-05-21T17:04:08.065Z,11.70
2019-05-21T17:06:34.178Z,11.70
2019-05-21T17:09:00.240Z,11.70
2019-05-21T17:11:26.332Z,11.70
2019-05-21T17:16:21.548Z,11.70
2019-05-21T17:18:47.829Z,11.70
2019-05-21T17:21:14.026Z,11.70
2019-05-21T17:23:40.288Z,11.70
2019-05-21T17:26:06.768Z,11.70
2019-05-21T17:28:33.788Z,11.70
2019-05-21T17:31:00.135Z,11.70
2019-05-21T17:33:26.705Z,11.70
2019-05-21T17:35:56.992Z,11.70
2019-05-21T17:38:38.146Z,11.70
2019-05-21T17:40:57.999Z,11.70
2019-05-21T17:43:33.275Z,11.70
2019-05-21T17:46:07.214Z,11.70
2019-05-21T17:48:44.908Z,11.60
2019-05-21T17:51:18.813Z,11.70
2019-05-21T17:53:47.531Z,11.60
2019-05-21T17:56:14.341Z,11.60
2019-05-21T17:58:41.031Z,11.60
2019-05-21T18:01:15.394Z,11.50
2019-05-21T18:03:47.641Z,11.60
2019-05-21T18:06:20.148Z,11.50
2019-05-21T18:08:47.855Z,11.50
2019-05-21T18:11:21.939Z,11.50
2019-05-21T18:13:53.249Z,11.50
2019-05-21T18:16:22.039Z,11.50
2019-05-21T18:18:50.768Z,11.50
2019-05-21T18:21:17.503Z,11.40
2019-05-21T18:23:43.673Z,11.40
2019-05-21T18:26:10.314Z,11.50
2019-05-21T18:28:41.326Z,11.50
2019-05-21T18:31:07.487Z,11.40
2019-05-21T18:33:38.224Z,11.50
2019-05-21T18:36:07.278Z,11.50
2019-05-21T18:38:35.793Z,11.50
2019-05-21T18:41:07.323Z,11.50
2019-05-21T18:43:33.435Z,11.50
2019-05-21T18:45:59.682Z,11.40
2019-05-21T18:48:25.744Z,11.40
2019-05-21T18:50:57.787Z,11.40
2019-05-21T18:53:27.535Z,11.40
2019-05-21T18:56:01.431Z,11.30
2019-05-21T18:58:30.051Z,11.30
2019-05-21T19:01:07.911Z,11.30
2019-05-21T19:03:37.905Z,11.30
2019-05-21T19:09:13.791Z,11.30
2019-05-21T19:11:39.926Z,11.30
2019-05-21T19:14:06.359Z,11.30
2019-05-21T19:16:32.665Z,11.30
2019-05-21T19:18:58.829Z,11.20
2019-05-21T19:21:25.244Z,11.30
2019-05-21T19:23:51.331Z,11.30
2019-05-21T19:26:17.534Z,11.30
2019-05-21T19:28:43.914Z,11.20
2019-05-21T19:31:10.210Z,11.20
2019-05-21T19:33:36.297Z,11.20
2019-05-21T19:36:02.758Z,11.20
2019-05-21T19:38:28.808Z,11.20
2019-05-21T19:40:55.090Z,11.20
2019-05-21T19:43:21.363Z,11.20
2019-05-21T19:45:47.786Z,11.10
2019-05-21T19:48:13.964Z,11.20
2019-05-21T19:50:40.470Z,11.20
2019-05-21T19:53:06.825Z,11.20
2019-05-21T19:55:34.518Z,11.20
2019-05-21T19:58:01.178Z,11.10
2019-05-21T20:00:28.036Z,11.10
2019-05-21T20:02:54.642Z,11.10
2019-05-21T20:05:21.274Z,11.10
2019-05-21T20:07:47.711Z,11.10
2019-05-21T20:10:14.657Z,11.10
2019-05-21T20:12:42.128Z,11.10
2019-05-21T20:15:09.035Z,11.20
2019-05-21T20:17:38.051Z,11.20
2019-05-21T20:20:06.352Z,11.10
2019-05-21T20:22:32.426Z,11.10
2019-05-21T20:24:58.873Z,11.20
2019-05-21T20:27:27.334Z,11.20
2019-05-21T20:29:53.874Z,11.20
2019-05-21T20:32:22.487Z,11.10
2019-05-21T20:34:51.007Z,11.10
2019-05-21T20:37:19.208Z,11.10
2019-05-21T20:39:47.770Z,11.10
2019-05-21T20:42:17.844Z,11.10
2019-05-21T20:44:44.235Z,11.10
2019-05-21T20:47:12.431Z,11.10
2019-05-21T20:49:38.773Z,11.10
2019-05-21T20:52:17.988Z,11.10
2019-05-21T20:54:35.698Z,11.10
2019-05-21T20:57:02.544Z,11.10
2019-05-21T20:59:29.727Z,11.00
2019-05-21T21:01:56.422Z,11.10
2019-05-21T21:04:23.358Z,11.10
2019-05-21T21:06:49.857Z,11.10
2019-05-21T21:09:16.946Z,11.10
2019-05-21T21:11:43.267Z,11.00
2019-05-21T21:14:17.867Z,11.00
2019-05-21T21:16:40.386Z,11.10
2019-05-21T21:19:06.888Z,11.00
2019-05-21T21:21:33.380Z,11.10
2019-05-21T21:23:59.818Z,11.00
2019-05-21T21:26:27.406Z,11.00
2019-05-21T21:28:53.807Z,11.00
2019-05-21T21:31:20.774Z,11.00
2019-05-21T21:33:47.211Z,11.00
2019-05-21T21:36:13.490Z,11.00
2019-05-21T21:38:39.682Z,11.00
2019-05-21T21:41:06.302Z,11.00
2019-05-21T21:43:32.756Z,11.00
2019-05-21T21:45:59.166Z,11.00
2019-05-21T21:48:25.843Z,11.00
2019-05-21T21:50:52.375Z,11.00
2019-05-21T21:53:18.829Z,11.00
2019-05-21T21:55:44.990Z,11.00
2019-05-21T21:58:11.233Z,11.00
2019-05-21T22:00:57.774Z,11.00
2019-05-21T22:03:26.144Z,11.00
2019-05-21T22:05:53.179Z,11.00
2019-05-21T22:08:19.632Z,11.00
2019-05-21T22:10:46.071Z,11.00
2019-05-21T22:13:12.565Z,11.00
2019-05-21T22:15:39.421Z,11.00
2019-05-21T22:18:05.630Z,11.00
2019-05-21T22:20:32.026Z,11.00
2019-05-21T22:22:58.192Z,11.00
2019-05-21T22:25:24.489Z,11.00
2019-05-21T22:27:50.732Z,11.00
2019-05-21T22:30:17.082Z,11.00
2019-05-21T22:32:43.362Z,11.00
2019-05-21T22:35:09.714Z,11.00
2019-05-21T22:37:35.816Z,11.00
2019-05-21T22:40:02.410Z,11.00
2019-05-21T22:42:28.784Z,11.00
2019-05-21T22:45:07.259Z,11.00
2019-05-21T22:47:23.274Z,11.00
2019-05-21T22:49:49.430Z,11.00
2019-05-21T22:52:15.613Z,11.00
2019-05-21T22:54:41.890Z,10.90
2019-05-21T22:57:08.300Z,11.00
2019-05-21T22:59:34.375Z,11.00
2019-05-21T23:02:02.485Z,10.90
2019-05-21T23:04:28.892Z,10.90
2019-05-21T23:06:55.164Z,11.00
2019-05-21T23:09:21.424Z,11.00
2019-05-21T23:11:47.597Z,11.00
2019-05-21T23:14:13.923Z,11.00
2019-05-21T23:16:40.014Z,11.00
2019-05-21T23:19:08.026Z,11.00
2019-05-21T23:21:34.490Z,11.00
2019-05-21T23:24:05.079Z,11.00
2019-05-21T23:26:33.419Z,11.00
2019-05-21T23:29:00.768Z,11.00
2019-05-21T23:31:28.316Z,11.00
2019-05-21T23:33:55.938Z,11.00
2019-05-21T23:36:22.033Z,11.00
2019-05-21T23:38:48.524Z,11.00
2019-05-21T23:41:17.800Z,11.00
2019-05-21T23:43:44.139Z,11.00
2019-05-21T23:46:10.452Z,11.00
2019-05-21T23:48:37.324Z,11.00
2019-05-21T23:51:03.810Z,11.00
2019-05-21T23:53:29.859Z,11.00
2019-05-21T23:55:56.048Z,11.00
2019-05-21T23:58:22.217Z,11.00
